createdAt,value
2018-01-29T00:00:02.773Z,1026.52
2018-01-29T00:01:02.707Z,1026.53
2018-01-29T00:02:02.785Z,1026.48
2018-01-29T00:03:02.658Z,1026.43
2018-01-29T00:04:02.692Z,1026.45
2018-01-29T00:05:02.607Z,1026.47
2018-01-29T00:06:02.603Z,1026.45
2018-01-29T00:07:02.552Z,1026.37
2018-01-29T00:08:02.617Z,1026.41
2018-01-29T00:09:02.505Z,1026.44
2018-01-29T00:10:02.529Z,1026.40
2018-01-29T00:11:02.451Z,1026.36
2018-01-29T00:12:02.539Z,1026.39
2018-01-29T00:13:02.400Z,1026.32
2018-01-29T00:14:02.450Z,1026.32
2018-01-29T00:15:02.348Z,1026.35
2018-01-29T00:16:02.360Z,1026.33
2018-01-29T00:17:02.300Z,1026.34
2018-01-29T00:18:02.372Z,1026.30
2018-01-29T00:19:02.251Z,1026.27
2018-01-29T00:20:02.283Z,1026.21
2018-01-29T00:21:02.197Z,1026.24
2018-01-29T00:22:02.194Z,1026.24
2018-01-29T00:23:02.146Z,1026.21
2018-01-29T00:24:02.204Z,1026.14
2018-01-29T00:25:02.097Z,1026.24
2018-01-29T00:26:02.114Z,1026.22
2018-01-29T00:27:02.045Z,1026.25
2018-01-29T00:28:02.126Z,1026.24
2018-01-29T00:29:01.996Z,1026.33
2018-01-29T00:30:02.037Z,1026.23
2018-01-29T00:31:01.942Z,1026.17
2018-01-29T00:32:01.948Z,1026.24
2018-01-29T00:33:01.893Z,1026.30
2018-01-29T00:34:01.961Z,1026.21
2018-01-29T00:35:01.844Z,1026.21
2018-01-29T00:36:01.871Z,1026.22
2018-01-29T00:37:01.788Z,1026.22
2018-01-29T00:38:01.782Z,1026.17
2018-01-29T00:39:01.743Z,1026.27
2018-01-29T00:40:01.797Z,1026.31
2018-01-29T00:41:01.688Z,1026.22
2018-01-29T00:42:01.703Z,1026.31
2018-01-29T00:43:01.638Z,1026.31
2018-01-29T00:44:01.716Z,1026.23
2018-01-29T00:45:01.586Z,1026.34
2018-01-29T00:46:01.626Z,1026.20
2018-01-29T00:47:01.534Z,1026.23
2018-01-29T00:48:01.534Z,1026.30
2018-01-29T00:49:01.481Z,1026.41
2018-01-29T00:50:01.548Z,1026.23
2018-01-29T00:51:01.434Z,1026.23
2018-01-29T00:52:01.458Z,1026.20
2018-01-29T00:53:01.382Z,1026.19
2018-01-29T00:54:01.369Z,1026.20
2018-01-29T00:55:01.332Z,1026.24
2018-01-29T00:56:01.380Z,1026.21
2018-01-29T00:57:01.281Z,1026.26
2018-01-29T00:58:01.300Z,1026.19
2018-01-29T00:59:01.227Z,1026.14
2018-01-29T01:00:01.305Z,1026.26
2018-01-29T01:01:01.189Z,1026.20
2018-01-29T01:02:01.212Z,1026.26
2018-01-29T01:03:01.127Z,1026.21
2018-01-29T01:04:01.122Z,1026.21
2018-01-29T01:05:01.081Z,1026.19
2018-01-29T01:06:01.133Z,1026.24
2018-01-29T01:07:01.024Z,1026.16
2018-01-29T01:08:01.046Z,1026.14
2018-01-29T01:09:00.974Z,1026.11
2018-01-29T01:10:01.057Z,1026.13
2018-01-29T01:11:00.923Z,1026.16
2018-01-29T01:12:00.969Z,1026.12
2018-01-29T01:13:00.873Z,1026.10
2018-01-29T01:14:00.878Z,1026.11
2018-01-29T01:15:00.823Z,1026.07
2018-01-29T01:16:00.891Z,1026.04
2018-01-29T01:17:00.771Z,1026.05
2018-01-29T01:18:00.802Z,1026.05
2018-01-29T01:19:00.717Z,1026.03
2018-01-29T01:20:00.711Z,1026.03
2018-01-29T01:21:00.668Z,1026.03
2018-01-29T01:22:00.729Z,1025.94
2018-01-29T01:23:00.616Z,1026.08
2018-01-29T01:24:00.634Z,1026.11
2018-01-29T01:25:00.566Z,1026.03
2018-01-29T01:26:00.649Z,1025.94
2018-01-29T01:27:00.517Z,1025.96
2018-01-29T01:28:00.556Z,1025.93
2018-01-29T01:29:00.463Z,1025.97
2018-01-29T01:30:00.465Z,1026.06
2018-01-29T01:31:00.413Z,1025.96
2018-01-29T01:32:00.474Z,1025.91
2018-01-29T01:33:00.361Z,1025.94
2018-01-29T01:34:00.390Z,1026.05
2018-01-29T01:35:00.310Z,1025.89
2018-01-29T01:36:01.326Z,1025.94
2018-01-29T01:37:00.259Z,1025.94
2018-01-29T01:38:00.316Z,1025.96
2018-01-29T01:39:00.206Z,1025.96
2018-01-29T01:40:00.224Z,1025.94
2018-01-29T01:41:00.160Z,1025.97
2018-01-29T01:42:00.245Z,1025.97
2018-01-29T01:43:00.105Z,1025.88
2018-01-29T01:44:00.150Z,1026.24
2018-01-29T01:45:00.051Z,1026.01
2018-01-29T01:46:00.048Z,1025.96
2018-01-29T01:47:00.002Z,1025.92
2018-01-29T01:48:00.069Z,1026.00
2018-01-29T01:48:59.955Z,1025.91
2018-01-29T01:49:59.977Z,1025.92
2018-01-29T01:50:59.901Z,1025.96
2018-01-29T01:51:59.989Z,1025.94
2018-01-29T01:52:59.849Z,1025.91
2018-01-29T01:53:59.898Z,1026.09
2018-01-29T01:54:59.798Z,1026.01
2018-01-29T01:55:59.809Z,1025.97
2018-01-29T01:56:59.748Z,1025.91
2018-01-29T01:57:59.821Z,1026.02
2018-01-29T01:58:59.698Z,1026.03
2018-01-29T01:59:59.732Z,1025.92
2018-01-29T02:00:59.645Z,1026.01
2018-01-29T02:01:59.643Z,1025.90
2018-01-29T02:02:59.593Z,1025.91
2018-01-29T02:03:59.653Z,1025.90
2018-01-29T02:04:59.543Z,1025.91
2018-01-29T02:05:59.564Z,1025.94
2018-01-29T02:06:59.493Z,1025.79
2018-01-29T02:07:59.577Z,1025.89
2018-01-29T02:08:59.468Z,1025.84
2018-01-29T02:09:59.487Z,1025.87
2018-01-29T02:10:59.390Z,1025.89
2018-01-29T02:11:59.397Z,1025.82
2018-01-29T02:12:59.339Z,1025.85
2018-01-29T02:13:59.410Z,1025.78
2018-01-29T02:14:59.287Z,1025.81
2018-01-29T02:15:59.318Z,1025.69
2018-01-29T02:16:59.237Z,1025.68
2018-01-29T02:17:59.230Z,1025.73
2018-01-29T02:18:59.186Z,1025.73
2018-01-29T02:19:59.244Z,1025.70
2018-01-29T02:20:59.135Z,1025.72
2018-01-29T02:21:59.154Z,1025.87
2018-01-29T02:22:59.082Z,1025.65
2018-01-29T02:23:59.164Z,1025.61
2018-01-29T02:24:59.031Z,1025.53
2018-01-29T02:25:59.079Z,1025.57
2018-01-29T02:26:58.980Z,1025.45
2018-01-29T02:27:58.988Z,1025.30
2018-01-29T02:28:58.931Z,1025.40
2018-01-29T02:29:58.998Z,1025.45
2018-01-29T02:30:58.876Z,1025.38
2018-01-29T02:31:58.905Z,1025.46
2018-01-29T02:32:58.829Z,1025.35
2018-01-29T02:33:58.818Z,1025.34
2018-01-29T02:34:58.778Z,1025.33
2018-01-29T02:35:58.879Z,1025.31
2018-01-29T02:36:58.725Z,1025.28
2018-01-29T02:37:58.733Z,1025.33
2018-01-29T02:38:58.675Z,1025.40
2018-01-29T02:39:58.752Z,1025.24
2018-01-29T02:40:58.628Z,1025.15
2018-01-29T02:41:58.663Z,1025.23
2018-01-29T02:42:58.570Z,1025.16
2018-01-29T02:43:58.572Z,1025.19
2018-01-29T02:44:58.522Z,1025.14
2018-01-29T02:45:58.584Z,1025.21
2018-01-29T02:46:58.470Z,1025.02
2018-01-29T02:47:58.497Z,1025.09
2018-01-29T02:48:58.419Z,1025.03
2018-01-29T02:49:58.406Z,1025.15
2018-01-29T02:50:58.368Z,1025.00
2018-01-29T02:51:58.420Z,1025.01
2018-01-29T02:52:58.317Z,1025.06
2018-01-29T02:53:58.330Z,1024.92
2018-01-29T02:54:58.264Z,1024.90
2018-01-29T02:55:58.343Z,1024.87
2018-01-29T02:56:58.218Z,1024.87
2018-01-29T02:57:58.253Z,1024.89
2018-01-29T02:58:58.165Z,1025.00
2018-01-29T02:59:58.161Z,1024.88
2018-01-29T03:00:58.116Z,1024.87
2018-01-29T03:01:58.172Z,1024.84
2018-01-29T03:02:58.063Z,1024.78
2018-01-29T03:03:58.083Z,1024.78
2018-01-29T03:04:58.019Z,1024.80
2018-01-29T03:05:58.097Z,1024.77
2018-01-29T03:06:57.962Z,1024.68
2018-01-29T03:07:58.004Z,1024.70
2018-01-29T03:08:57.911Z,1024.59
2018-01-29T03:09:57.914Z,1024.73
2018-01-29T03:10:57.856Z,1024.82
2018-01-29T03:11:57.927Z,1024.62
2018-01-29T03:12:57.806Z,1024.70
2018-01-29T03:13:57.837Z,1024.69
2018-01-29T03:14:57.755Z,1024.94
2018-01-29T03:15:57.748Z,1024.74
2018-01-29T03:16:57.706Z,1024.67
2018-01-29T03:17:57.761Z,1024.64
2018-01-29T03:18:57.654Z,1024.71
2018-01-29T03:19:57.670Z,1024.71
2018-01-29T03:20:57.599Z,1024.66
2018-01-29T03:21:57.683Z,1024.73
2018-01-29T03:22:57.551Z,1024.79
2018-01-29T03:23:57.593Z,1024.72
2018-01-29T03:24:57.500Z,1024.82
2018-01-29T03:25:57.503Z,1024.77
2018-01-29T03:26:57.449Z,1024.73
2018-01-29T03:27:57.515Z,1024.69
2018-01-29T03:28:57.403Z,1024.61
2018-01-29T03:29:57.430Z,1024.79
2018-01-29T03:30:57.347Z,1024.71
2018-01-29T03:31:57.335Z,1024.77
2018-01-29T03:32:57.296Z,1024.73
2018-01-29T03:33:57.348Z,1024.65
2018-01-29T03:34:57.243Z,1024.66
2018-01-29T03:35:57.258Z,1024.71
2018-01-29T03:36:57.195Z,1024.71
2018-01-29T03:37:57.270Z,1024.70
2018-01-29T03:38:57.141Z,1024.69
2018-01-29T03:39:57.183Z,1024.65
2018-01-29T03:40:57.090Z,1024.74
2018-01-29T03:41:57.091Z,1024.61
2018-01-29T03:42:57.040Z,1024.64
2018-01-29T03:43:57.102Z,1024.58
2018-01-29T03:44:56.988Z,1024.75
2018-01-29T03:45:57.011Z,1024.78
2018-01-29T03:46:56.939Z,1024.73
2018-01-29T03:47:57.025Z,1024.88
2018-01-29T03:48:56.888Z,1024.74
2018-01-29T03:49:56.936Z,1024.60
2018-01-29T03:50:56.835Z,1024.74
2018-01-29T03:51:56.846Z,1024.70
2018-01-29T03:52:56.787Z,1024.70
2018-01-29T03:53:56.860Z,1024.65
2018-01-29T03:54:56.733Z,1024.63
2018-01-29T03:55:56.770Z,1024.62
2018-01-29T03:56:56.686Z,1024.71
2018-01-29T03:57:56.681Z,1024.58
2018-01-29T03:58:56.634Z,1024.65
2018-01-29T03:59:56.692Z,1024.62
2018-01-29T04:00:56.580Z,1024.85
2018-01-29T04:01:56.599Z,1024.72
2018-01-29T04:02:56.531Z,1024.59
2018-01-29T04:03:56.614Z,1024.67
2018-01-29T04:04:56.482Z,1024.67
2018-01-29T04:05:56.524Z,1024.62
2018-01-29T04:06:56.431Z,1024.61
2018-01-29T04:07:56.433Z,1024.68
2018-01-29T04:08:56.381Z,1024.64
2018-01-29T04:09:56.446Z,1024.69
2018-01-29T04:10:56.330Z,1024.68
2018-01-29T04:11:56.361Z,1024.64
2018-01-29T04:12:56.279Z,1024.62
2018-01-29T04:13:56.278Z,1024.69
2018-01-29T04:14:56.227Z,1024.72
2018-01-29T04:15:56.280Z,1024.78
2018-01-29T04:16:56.177Z,1024.76
2018-01-29T04:17:57.213Z,1024.74
2018-01-29T04:18:56.126Z,1024.69
2018-01-29T04:19:56.200Z,1024.66
2018-01-29T04:20:56.074Z,1024.68
2018-01-29T04:21:56.113Z,1024.64
2018-01-29T04:22:56.024Z,1024.73
2018-01-29T04:23:56.022Z,1024.62
2018-01-29T04:24:55.975Z,1024.66
2018-01-29T04:25:56.034Z,1024.53
2018-01-29T04:26:55.922Z,1024.72
2018-01-29T04:27:55.943Z,1024.51
2018-01-29T04:28:55.872Z,1024.48
2018-01-29T04:29:55.957Z,1024.58
2018-01-29T04:30:55.821Z,1024.48
2018-01-29T04:31:55.868Z,1024.44
2018-01-29T04:32:55.771Z,1024.41
2018-01-29T04:33:55.777Z,1024.35
2018-01-29T04:34:55.721Z,1024.46
2018-01-29T04:35:55.796Z,1024.48
2018-01-29T04:36:55.670Z,1024.46
2018-01-29T04:37:55.700Z,1024.47
2018-01-29T04:38:55.619Z,1024.47
2018-01-29T04:39:55.608Z,1024.41
2018-01-29T04:40:55.568Z,1024.41
2018-01-29T04:41:55.621Z,1024.41
2018-01-29T04:42:55.517Z,1024.43
2018-01-29T04:43:55.533Z,1024.35
2018-01-29T04:44:55.467Z,1024.38
2018-01-29T04:45:55.547Z,1024.41
2018-01-29T04:46:55.416Z,1024.33
2018-01-29T04:47:55.455Z,1024.36
2018-01-29T04:48:55.368Z,1024.35
2018-01-29T04:49:55.366Z,1024.37
2018-01-29T04:50:55.315Z,1024.30
2018-01-29T04:51:55.375Z,1024.22
2018-01-29T04:52:55.267Z,1024.37
2018-01-29T04:53:55.290Z,1024.30
2018-01-29T04:54:55.215Z,1024.35
2018-01-29T04:55:55.300Z,1024.24
2018-01-29T04:56:55.165Z,1024.32
2018-01-29T04:57:55.208Z,1024.24
2018-01-29T04:58:55.114Z,1024.31
2018-01-29T04:59:55.119Z,1024.27
2018-01-29T05:00:55.063Z,1024.37
2018-01-29T05:01:55.134Z,1024.32
2018-01-29T05:02:55.011Z,1024.40
2018-01-29T05:03:55.042Z,1024.38
2018-01-29T05:04:54.960Z,1024.45
2018-01-29T05:05:54.954Z,1024.38
2018-01-29T05:06:54.912Z,1024.33
2018-01-29T05:07:54.971Z,1024.38
2018-01-29T05:08:54.861Z,1024.38
2018-01-29T05:09:54.875Z,1024.35
2018-01-29T05:10:54.806Z,1024.45
2018-01-29T05:11:54.890Z,1024.37
2018-01-29T05:12:54.758Z,1024.33
2018-01-29T05:13:54.799Z,1024.55
2018-01-29T05:14:54.704Z,1024.54
2018-01-29T05:15:54.708Z,1024.37
2018-01-29T05:16:54.655Z,1024.37
2018-01-29T05:17:54.721Z,1024.45
2018-01-29T05:18:54.606Z,1024.37
2018-01-29T05:19:54.632Z,1024.39
2018-01-29T05:20:54.556Z,1024.41
2018-01-29T05:21:54.643Z,1024.37
2018-01-29T05:22:54.504Z,1024.42
2018-01-29T05:23:54.555Z,1024.39
2018-01-29T05:24:54.456Z,1024.48
2018-01-29T05:25:54.462Z,1024.40
2018-01-29T05:26:54.404Z,1024.47
2018-01-29T05:27:54.477Z,1024.46
2018-01-29T05:28:54.355Z,1024.58
2018-01-29T05:29:54.386Z,1024.44
2018-01-29T05:30:54.303Z,1024.42
2018-01-29T05:31:54.297Z,1024.39
2018-01-29T05:32:54.251Z,1024.49
2018-01-29T05:33:54.308Z,1024.43
2018-01-29T05:34:54.201Z,1024.35
2018-01-29T05:35:54.220Z,1024.46
2018-01-29T05:36:54.151Z,1024.39
2018-01-29T05:37:54.230Z,1024.48
2018-01-29T05:38:54.101Z,1024.40
2018-01-29T05:39:54.142Z,1024.45
2018-01-29T05:40:54.051Z,1024.35
2018-01-29T05:41:54.150Z,1024.48
2018-01-29T05:42:54.000Z,1024.44
2018-01-29T05:43:54.064Z,1024.60
2018-01-29T05:44:53.949Z,1024.34
2018-01-29T05:45:53.973Z,1024.37
2018-01-29T05:46:53.898Z,1024.34
2018-01-29T05:47:53.987Z,1024.29
2018-01-29T05:48:53.850Z,1024.42
2018-01-29T05:49:53.896Z,1024.23
2018-01-29T05:50:53.799Z,1024.29
2018-01-29T05:51:53.805Z,1024.28
2018-01-29T05:52:53.747Z,1024.26
2018-01-29T05:53:53.817Z,1024.32
2018-01-29T05:54:53.697Z,1024.38
2018-01-29T05:55:53.728Z,1024.34
2018-01-29T05:56:53.645Z,1024.36
2018-01-29T05:57:53.638Z,1024.34
2018-01-29T05:58:53.595Z,1024.30
2018-01-29T05:59:53.651Z,1024.33
2018-01-29T06:00:53.547Z,1024.31
2018-01-29T06:01:53.562Z,1024.45
2018-01-29T06:02:53.495Z,1024.34
2018-01-29T06:03:53.575Z,1024.20
2018-01-29T06:04:53.445Z,1024.29
2018-01-29T06:05:53.485Z,1024.30
2018-01-29T06:06:53.396Z,1024.22
2018-01-29T06:07:53.393Z,1024.23
2018-01-29T06:08:53.347Z,1024.30
2018-01-29T06:09:53.408Z,1024.44
2018-01-29T06:10:53.290Z,1024.27
2018-01-29T06:11:53.320Z,1024.30
2018-01-29T06:12:53.241Z,1024.30
2018-01-29T06:13:53.328Z,1024.27
2018-01-29T06:14:53.192Z,1024.38
2018-01-29T06:15:53.243Z,1024.30
2018-01-29T06:16:53.144Z,1024.16
2018-01-29T06:17:53.152Z,1024.22
2018-01-29T06:18:53.089Z,1024.22
2018-01-29T06:19:53.164Z,1024.28
2018-01-29T06:20:53.042Z,1024.27
2018-01-29T06:21:53.074Z,1024.31
2018-01-29T06:22:52.990Z,1024.26
2018-01-29T06:23:52.982Z,1024.33
2018-01-29T06:24:52.939Z,1024.27
2018-01-29T06:25:52.995Z,1024.25
2018-01-29T06:26:52.903Z,1024.28
2018-01-29T06:27:52.905Z,1024.30
2018-01-29T06:28:52.839Z,1024.34
2018-01-29T06:29:52.917Z,1024.26
2018-01-29T06:30:52.782Z,1024.27
2018-01-29T06:31:52.826Z,1024.23
2018-01-29T06:32:52.736Z,1024.29
2018-01-29T06:33:52.736Z,1024.23
2018-01-29T06:34:52.686Z,1024.24
2018-01-29T06:35:52.753Z,1024.32
2018-01-29T06:36:52.637Z,1024.30
2018-01-29T06:37:52.664Z,1024.40
2018-01-29T06:38:52.587Z,1024.34
2018-01-29T06:39:52.671Z,1024.36
2018-01-29T06:40:52.536Z,1024.34
2018-01-29T06:41:52.581Z,1024.38
2018-01-29T06:42:52.484Z,1024.32
2018-01-29T06:43:52.491Z,1024.31
2018-01-29T06:44:52.440Z,1024.27
2018-01-29T06:45:52.504Z,1024.24
2018-01-29T06:46:52.389Z,1024.23
2018-01-29T06:47:52.415Z,1024.20
2018-01-29T06:48:52.333Z,1024.21
2018-01-29T06:49:52.325Z,1024.28
2018-01-29T06:50:52.316Z,1024.17
2018-01-29T06:51:52.336Z,1024.20
2018-01-29T06:52:52.232Z,1024.12
2018-01-29T06:53:52.244Z,1024.08
2018-01-29T06:54:52.184Z,1024.13
2018-01-29T06:55:52.261Z,1024.15
2018-01-29T06:56:52.133Z,1024.12
2018-01-29T06:57:52.169Z,1024.07
2018-01-29T06:58:52.078Z,1024.03
2018-01-29T06:59:52.076Z,1024.02
2018-01-29T07:00:52.030Z,1024.03
2018-01-29T07:01:52.093Z,1024.11
2018-01-29T07:02:51.981Z,1024.14
2018-01-29T07:03:52.003Z,1024.13
2018-01-29T07:04:51.927Z,1024.24
2018-01-29T07:05:52.014Z,1024.15
2018-01-29T07:06:51.878Z,1024.13
2018-01-29T07:07:51.926Z,1024.21
2018-01-29T07:08:51.828Z,1024.24
2018-01-29T07:09:51.838Z,1024.26
2018-01-29T07:10:51.782Z,1024.29
2018-01-29T07:11:51.845Z,1024.22
2018-01-29T07:12:51.728Z,1024.26
2018-01-29T07:13:51.759Z,1024.22
2018-01-29T07:14:51.675Z,1024.22
2018-01-29T07:15:51.668Z,1024.33
2018-01-29T07:16:51.628Z,1024.35
2018-01-29T07:17:51.690Z,1024.23
2018-01-29T07:18:51.572Z,1024.25
2018-01-29T07:19:51.591Z,1024.27
2018-01-29T07:20:51.523Z,1024.29
2018-01-29T07:21:51.603Z,1024.35
2018-01-29T07:22:51.473Z,1024.28
2018-01-29T07:23:51.511Z,1024.26
2018-01-29T07:24:51.423Z,1024.17
2018-01-29T07:25:51.421Z,1024.23
2018-01-29T07:26:51.374Z,1024.26
2018-01-29T07:27:51.436Z,1024.19
2018-01-29T07:28:51.322Z,1024.15
2018-01-29T07:29:51.346Z,1024.15
2018-01-29T07:30:51.272Z,1024.21
2018-01-29T07:31:51.360Z,1024.07
2018-01-29T07:32:51.221Z,1024.12
2018-01-29T07:33:51.267Z,1024.04
2018-01-29T07:34:51.169Z,1024.18
2018-01-29T07:35:51.178Z,1024.01
2018-01-29T07:36:51.121Z,1024.14
2018-01-29T07:37:51.190Z,1024.17
2018-01-29T07:38:51.074Z,1023.99
2018-01-29T07:39:51.100Z,1024.13
2018-01-29T07:40:51.022Z,1024.12
2018-01-29T07:41:51.010Z,1024.06
2018-01-29T07:42:50.971Z,1024.18
2018-01-29T07:43:51.024Z,1024.10
2018-01-29T07:44:50.919Z,1024.09
2018-01-29T07:45:50.934Z,1024.03
2018-01-29T07:46:50.866Z,1024.05
2018-01-29T07:47:50.946Z,1024.09
2018-01-29T07:48:50.823Z,1024.16
2018-01-29T07:49:50.854Z,1024.02
2018-01-29T07:50:50.771Z,1024.04
2018-01-29T07:51:50.766Z,1024.22
2018-01-29T07:52:50.716Z,1024.02
2018-01-29T07:53:50.778Z,1024.01
2018-01-29T07:54:50.668Z,1023.97
2018-01-29T07:55:50.688Z,1024.13
2018-01-29T07:56:50.616Z,1024.01
2018-01-29T07:57:50.698Z,1024.04
2018-01-29T07:58:50.565Z,1024.08
2018-01-29T07:59:50.612Z,1023.99
2018-01-29T08:00:50.517Z,1023.97
2018-01-29T08:01:50.525Z,1023.94
2018-01-29T08:02:50.463Z,1023.97
2018-01-29T08:03:50.532Z,1023.90
2018-01-29T08:04:50.417Z,1024.03
2018-01-29T08:05:50.445Z,1023.93
2018-01-29T08:06:50.362Z,1023.90
2018-01-29T08:07:50.357Z,1023.89
2018-01-29T08:08:50.321Z,1023.91
2018-01-29T08:09:50.367Z,1023.81
2018-01-29T08:10:50.265Z,1023.90
2018-01-29T08:11:50.276Z,1023.89
2018-01-29T08:12:50.216Z,1023.80
2018-01-29T08:13:50.289Z,1023.92
2018-01-29T08:14:50.161Z,1023.87
2018-01-29T08:15:50.198Z,1024.03
2018-01-29T08:16:50.111Z,1024.03
2018-01-29T08:17:50.110Z,1023.88
2018-01-29T08:18:50.055Z,1023.84
2018-01-29T08:19:50.121Z,1023.85
2018-01-29T08:20:50.010Z,1023.88
2018-01-29T08:21:50.042Z,1023.83
2018-01-29T08:22:49.959Z,1023.80
2018-01-29T08:23:50.046Z,1023.78
2018-01-29T08:24:49.908Z,1023.84
2018-01-29T08:25:49.955Z,1023.80
2018-01-29T08:26:49.859Z,1023.88
2018-01-29T08:27:49.864Z,1023.77
2018-01-29T08:28:49.812Z,1023.80
2018-01-29T08:29:49.878Z,1023.80
2018-01-29T08:30:49.758Z,1023.83
2018-01-29T08:31:49.789Z,1023.79
2018-01-29T08:32:49.709Z,1023.78
2018-01-29T08:33:49.698Z,1023.92
2018-01-29T08:34:49.655Z,1023.81
2018-01-29T08:35:49.721Z,1023.76
2018-01-29T08:36:49.607Z,1023.84
2018-01-29T08:37:49.619Z,1023.78
2018-01-29T08:38:49.555Z,1023.71
2018-01-29T08:39:49.631Z,1023.69
2018-01-29T08:40:49.501Z,1023.71
2018-01-29T08:41:49.542Z,1023.85
2018-01-29T08:42:49.454Z,1023.78
2018-01-29T08:43:49.452Z,1023.72
2018-01-29T08:44:49.406Z,1023.77
2018-01-29T08:45:49.376Z,1023.78
2018-01-29T08:46:49.354Z,1023.82
2018-01-29T08:47:49.445Z,1023.94
2018-01-29T08:48:49.305Z,1023.75
2018-01-29T08:49:49.458Z,1023.73
2018-01-29T08:50:49.252Z,1023.73
2018-01-29T08:51:49.228Z,1023.69
2018-01-29T08:52:49.303Z,1023.72
2018-01-29T08:53:49.177Z,1023.63
2018-01-29T08:54:49.214Z,1023.76
2018-01-29T08:55:49.126Z,1023.61
2018-01-29T08:56:49.124Z,1023.72
2018-01-29T08:57:49.077Z,1023.58
2018-01-29T08:58:49.139Z,1023.58
2018-01-29T08:59:49.028Z,1023.63
2018-01-29T09:00:49.052Z,1023.59
2018-01-29T09:01:49.025Z,1023.63
2018-01-29T09:02:49.060Z,1023.57
2018-01-29T09:03:48.927Z,1023.52
2018-01-29T09:04:48.969Z,1023.48
2018-01-29T09:05:48.876Z,1023.54
2018-01-29T09:06:48.877Z,1023.55
2018-01-29T09:07:48.825Z,1023.52
2018-01-29T09:08:48.892Z,1023.45
2018-01-29T09:09:48.774Z,1023.50
2018-01-29T09:10:48.800Z,1023.50
2018-01-29T09:11:48.723Z,1023.41
2018-01-29T09:12:48.711Z,1023.49
2018-01-29T09:13:48.672Z,1023.51
2018-01-29T09:14:48.723Z,1023.72
2018-01-29T09:15:48.623Z,1023.49
2018-01-29T09:16:48.720Z,1023.51
2018-01-29T09:17:48.572Z,1023.51
2018-01-29T09:18:48.738Z,1023.43
2018-01-29T09:19:48.523Z,1023.54
2018-01-29T09:20:48.649Z,1023.45
2018-01-29T09:21:48.470Z,1023.51
2018-01-29T09:22:48.561Z,1023.38
2018-01-29T09:23:48.422Z,1023.43
2018-01-29T09:24:48.580Z,1023.44
2018-01-29T09:25:48.368Z,1023.52
2018-01-29T09:26:48.487Z,1023.47
2018-01-29T09:27:48.368Z,1023.47
2018-01-29T09:28:48.501Z,1023.49
2018-01-29T09:29:48.271Z,1023.38
2018-01-29T09:30:48.414Z,1023.38
2018-01-29T09:31:48.220Z,1023.38
2018-01-29T09:32:48.221Z,1023.44
2018-01-29T09:33:48.176Z,1023.44
2018-01-29T09:34:48.346Z,1023.40
2018-01-29T09:35:48.118Z,1023.43
2018-01-29T09:36:48.250Z,1023.40
2018-01-29T09:37:48.069Z,1023.47
2018-01-29T09:38:48.263Z,1023.43
2018-01-29T09:39:48.018Z,1023.52
2018-01-29T09:40:48.174Z,1023.46
2018-01-29T09:41:47.967Z,1023.43
2018-01-29T09:42:47.989Z,1023.52
2018-01-29T09:43:47.915Z,1023.47
2018-01-29T09:44:47.997Z,1023.50
2018-01-29T09:45:47.868Z,1023.49
2018-01-29T09:46:47.907Z,1023.54
2018-01-29T09:47:47.813Z,1023.40
2018-01-29T09:48:47.820Z,1023.34
2018-01-29T09:49:47.764Z,1023.47
2018-01-29T09:50:47.835Z,1023.47
2018-01-29T09:51:47.715Z,1023.47
2018-01-29T09:52:47.743Z,1023.50
2018-01-29T09:53:47.662Z,1023.41
2018-01-29T09:54:47.761Z,1023.46
2018-01-29T09:55:47.614Z,1023.48
2018-01-29T09:56:47.671Z,1023.47
2018-01-29T09:57:47.565Z,1023.52
2018-01-29T09:58:47.582Z,1023.46
2018-01-29T09:59:47.514Z,1023.51
2018-01-29T10:00:47.597Z,1023.47
2018-01-29T10:01:47.471Z,1023.54
2018-01-29T10:02:47.544Z,1023.55
2018-01-29T10:03:47.417Z,1023.53
2018-01-29T10:04:47.419Z,1023.58
2018-01-29T10:05:47.364Z,1023.54
2018-01-29T10:06:47.437Z,1023.53
2018-01-29T10:07:47.312Z,1023.56
2018-01-29T10:08:47.346Z,1023.53
2018-01-29T10:09:47.262Z,1023.47
2018-01-29T10:10:47.256Z,1023.40
2018-01-29T10:11:47.210Z,1023.45
2018-01-29T10:12:47.275Z,1023.44
2018-01-29T10:13:47.160Z,1023.47
2018-01-29T10:14:47.182Z,1023.39
2018-01-29T10:15:47.111Z,1023.46
2018-01-29T10:16:47.196Z,1023.41
2018-01-29T10:17:47.060Z,1023.50
2018-01-29T10:18:47.151Z,1023.33
2018-01-29T10:19:47.012Z,1023.46
2018-01-29T10:20:47.018Z,1023.44
2018-01-29T10:21:46.959Z,1023.41
2018-01-29T10:22:47.033Z,1023.34
2018-01-29T10:23:46.910Z,1023.38
2018-01-29T10:24:46.945Z,1023.45
2018-01-29T10:25:46.858Z,1023.33
2018-01-29T10:26:46.856Z,1023.39
2018-01-29T10:27:46.801Z,1023.38
2018-01-29T10:28:46.869Z,1023.33
2018-01-29T10:29:46.759Z,1023.35
2018-01-29T10:30:46.782Z,1023.26
2018-01-29T10:31:46.708Z,1023.37
2018-01-29T10:32:46.795Z,1023.34
2018-01-29T10:33:46.658Z,1023.28
2018-01-29T10:34:46.710Z,1023.34
2018-01-29T10:35:46.609Z,1023.21
2018-01-29T10:36:46.618Z,1023.23
2018-01-29T10:37:46.559Z,1023.24
2018-01-29T10:38:46.633Z,1023.25
2018-01-29T10:39:46.517Z,1023.34
2018-01-29T10:40:46.557Z,1023.28
2018-01-29T10:41:46.465Z,1023.12
2018-01-29T10:42:46.473Z,1023.10
2018-01-29T10:43:46.409Z,1023.09
2018-01-29T10:44:46.486Z,1023.18
2018-01-29T10:45:46.356Z,1023.04
2018-01-29T10:46:46.382Z,1023.10
2018-01-29T10:47:46.307Z,1023.10
2018-01-29T10:48:46.396Z,1022.98
2018-01-29T10:49:46.256Z,1023.09
2018-01-29T10:50:46.311Z,1023.09
2018-01-29T10:51:46.209Z,1023.04
2018-01-29T10:52:46.218Z,1023.09
2018-01-29T10:53:46.157Z,1023.04
2018-01-29T10:54:46.229Z,1022.90
2018-01-29T10:55:46.106Z,1023.06
2018-01-29T10:56:46.143Z,1022.96
2018-01-29T10:57:46.055Z,1022.92
2018-01-29T10:58:46.056Z,1022.98
2018-01-29T10:59:46.009Z,1022.98
2018-01-29T11:00:46.073Z,1022.95
2018-01-29T11:01:45.953Z,1023.00
2018-01-29T11:02:45.981Z,1022.91
2018-01-29T11:03:45.906Z,1022.94
2018-01-29T11:04:45.996Z,1022.94
2018-01-29T11:05:45.855Z,1022.90
2018-01-29T11:06:45.907Z,1022.93
2018-01-29T11:07:45.805Z,1022.84
2018-01-29T11:08:45.821Z,1022.86
2018-01-29T11:09:45.757Z,1022.87
2018-01-29T11:10:45.833Z,1022.87
2018-01-29T11:11:45.706Z,1022.75
2018-01-29T11:12:45.742Z,1022.88
2018-01-29T11:13:45.655Z,1022.72
2018-01-29T11:14:45.654Z,1022.83
2018-01-29T11:15:45.609Z,1022.80
2018-01-29T11:16:45.582Z,1022.77
2018-01-29T11:17:45.578Z,1022.82
2018-01-29T11:18:45.567Z,1022.87
2018-01-29T11:19:45.586Z,1022.72
2018-01-29T11:20:45.480Z,1022.72
2018-01-29T11:21:45.502Z,1022.67
2018-01-29T11:22:45.433Z,1022.72
2018-01-29T11:23:45.515Z,1022.70
2018-01-29T11:24:45.384Z,1022.74
2018-01-29T11:25:45.427Z,1022.66
2018-01-29T11:26:45.337Z,1022.65
2018-01-29T11:27:45.337Z,1022.57
2018-01-29T11:28:45.282Z,1022.81
2018-01-29T11:29:45.350Z,1022.66
2018-01-29T11:30:45.231Z,1022.71
2018-01-29T11:31:45.270Z,1022.65
2018-01-29T11:32:45.180Z,1022.60
2018-01-29T11:33:45.173Z,1022.60
2018-01-29T11:34:45.136Z,1022.66
2018-01-29T11:35:45.188Z,1022.61
2018-01-29T11:36:45.084Z,1022.70
2018-01-29T11:37:45.098Z,1022.64
2018-01-29T11:38:45.031Z,1022.50
2018-01-29T11:39:59.969Z,1022.53
2018-01-29T11:40:45.010Z,1022.53
2018-01-29T11:41:45.035Z,1022.57
2018-01-29T11:42:44.933Z,1022.62
2018-01-29T11:43:45.971Z,1022.55
2018-01-29T11:44:44.884Z,1022.46
2018-01-29T11:45:44.949Z,1022.47
2018-01-29T11:46:44.833Z,1022.44
2018-01-29T11:47:44.858Z,1022.43
2018-01-29T11:48:44.783Z,1022.49
2018-01-29T11:49:44.773Z,1022.51
2018-01-29T11:50:44.734Z,1022.47
2018-01-29T11:51:44.789Z,1022.44
2018-01-29T11:52:44.684Z,1022.44
2018-01-29T11:53:44.699Z,1022.45
2018-01-29T11:54:44.634Z,1022.40
2018-01-29T11:55:44.711Z,1022.35
2018-01-29T11:56:44.583Z,1022.44
2018-01-29T11:57:44.623Z,1022.36
2018-01-29T11:58:44.530Z,1022.34
2018-01-29T11:59:44.534Z,1022.34
2018-01-29T12:00:44.528Z,1022.37
2018-01-29T12:01:44.552Z,1022.29
2018-01-29T12:02:44.431Z,1022.36
2018-01-29T12:03:44.460Z,1022.34
2018-01-29T12:04:44.385Z,1022.22